Rough And Ready, California
Current Conditions -  °F | °C
As of 8:20 PM on Friday 31 Oct 2014 (Local Time) from KGOO Reporting Station
Overcast Overcast  
Wind Chill: 45°   Ceiling: 2700
Heat Index: 48°   Visibility: 5mi
Dew Point: 48°   Wind: 8mph
Humidity: 100%   Direction: 120°ESE
Pressure: 29.76"   Gusts: NA
Location:  39.23°N, 121.13°W
Report Text: KGOO 010320Z AUTO 12007KT 5SM SCT001 BKN027 OVC038 09/09 A2976 RMK AO1 P0001
Loading
Personal Weather Stations






























Interactive Weather Map
Tropical Storm Tracking
New forecast layout! Learn more

10-Day Weather Forecast

Advertisements
Track Severe Weather on mobile